M I D A S
Marine Information and Data Acquisition System
Tripno 1637 of the Zeeleeuw from 2009-01-30 08:06:06 to 2009-01-30 14:33:32
Back to CruiseResearch ActivitiesStationsMapUnderway DataData graphs

EquipmentUnitsComments
TimeDGPSUTC
LatitudeDGPSDM.mWGS84
LongitudeDGPSDM.mWGS84
SpeedMeteo Stationm/sRelative wind speed
DirectionMeteo StationdegRelative wind direction
TemperatureMeteo Stationdeg CelciusAir temperature
PressureMeteo StationPaAtmospheric pressure
HumidityMeteo Station%Relative humidity
Missing or incorrect values are displayed as -999
Metereological data collected by the RV Zeeleeuw from 2009-01-30 08:08:23 to 2009-01-30 14:40:02
Time Latitude Longitude Speed Direction Temperature Pressure Humidity
2009-01-30 08:09 51°13.677 2°55.917 -999 -999 -999 -999 -999
2009-01-30 08:10 51°13.699 2°55.83 -999 -999 -999 -999 -999
2009-01-30 08:11 51°13.7 2°55.76 -999 -999 -999 -999 -999
2009-01-30 08:12 51°13.713 2°55.763 -999 -999 -999 -999 -999
2009-01-30 08:13 51°13.736 2°55.73 -999 -999 -999 -999 -999
2009-01-30 08:14 51°13.819 2°55.643 -999 -999 -999 -999 -999
2009-01-30 08:15 51°13.93 2°55.558 -999 -999 -999 -999 -999
2009-01-30 08:16 51°14.052 2°55.47 -999 -999 -999 -999 -999
2009-01-30 08:17 51°14.178 2°55.368 -999 -999 -999 -999 -999
2009-01-30 08:18 51°14.293 2°55.218 -999 -999 -999 -999 -999
2009-01-30 08:19 51°14.388 2°55.011 -999 -999 -999 -999 -999
2009-01-30 08:20 51°14.519 2°54.83 -999 -999 -999 -999 -999
2009-01-30 08:21 51°14.679 2°54.667 -999 -999 -999 -999 -999
2009-01-30 08:22 51°14.847 2°54.492 -999 -999 -999 -999 -999
2009-01-30 08:23 51°15.013 2°54.324 -999 -999 -999 -999 -999
2009-01-30 08:24 51°15.186 2°54.16 -999 -999 -999 -999 -999
2009-01-30 08:25 51°15.36 2°53.995 -999 -999 -999 -999 -999
2009-01-30 08:26 51°15.535 2°53.842 -999 -999 -999 -999 -999
2009-01-30 08:27 51°15.718 2°53.69 -999 -999 -999 -999 -999
2009-01-30 08:28 51°15.896 2°53.533 -999 -999 -999 -999 -999
2009-01-30 08:29 51°16.077 2°53.376 -999 -999 -999 -999 -999
2009-01-30 08:30 51°16.257 2°53.216 -999 -999 -999 -999 -999
2009-01-30 08:31 51°16.437 2°53.055 -999 -999 -999 -999 -999
2009-01-30 08:32 51°16.616 2°52.896 -999 -999 -999 -999 -999
2009-01-30 08:33 51°16.795 2°52.751 -999 -999 -999 -999 -999
2009-01-30 08:34 51°16.974 2°52.617 -999 -999 -999 -999 -999
2009-01-30 08:35 51°17.151 2°52.485 -999 -999 -999 -999 -999
2009-01-30 08:36 51°17.335 2°52.347 -999 -999 -999 -999 -999
2009-01-30 08:37 51°17.513 2°52.198 -999 -999 -999 -999 -999
2009-01-30 08:38 51°17.688 2°52.037 -999 -999 -999 -999 -999
2009-01-30 08:39 51°17.859 2°51.872 -999 -999 -999 -999 -999
2009-01-30 08:40 51°18.031 2°51.7 -999 -999 -999 -999 -999
2009-01-30 08:41 51°18.205 2°51.528 -999 -999 -999 -999 -999
2009-01-30 08:42 51°18.378 2°51.346 -999 -999 -999 -999 -999
2009-01-30 08:43 51°18.55 2°51.16 -999 -999 -999 -999 -999
2009-01-30 08:44 51°18.719 2°50.966 -999 -999 -999 -999 -999
2009-01-30 08:45 51°18.888 2°50.77 -999 -999 -999 -999 -999
2009-01-30 08:46 51°19.06 2°50.579 -999 -999 -999 -999 -999
2009-01-30 08:47 51°19.228 2°50.38 -999 -999 -999 -999 -999
2009-01-30 08:48 51°19.399 2°50.186 -999 -999 -999 -999 -999
2009-01-30 08:49 51°19.569 2°49.986 -999 -999 -999 -999 -999
2009-01-30 08:50 51°19.742 2°49.792 -999 -999 -999 -999 -999
2009-01-30 08:51 51°19.922 2°49.607 -999 -999 -999 -999 -999
2009-01-30 08:52 51°20.1 2°49.41 -999 -999 -999 -999 -999
2009-01-30 08:53 51°20.276 2°49.204 -999 -999 -999 -999 -999
2009-01-30 08:54 51°20.454 2°49.004 -999 -999 -999 -999 -999
2009-01-30 08:55 51°20.631 2°48.804 -999 -999 -999 -999 -999
2009-01-30 08:56 51°20.805 2°48.598 -999 -999 -999 -999 -999
2009-01-30 08:57 51°20.981 2°48.403 -999 -999 -999 -999 -999
2009-01-30 08:58 51°21.159 2°48.21 -999 -999 -999 -999 -999
2009-01-30 08:59 51°21.343 2°48.029 -999 -999 -999 -999 -999
2009-01-30 09:00 51°21.525 2°47.838 -999 -999 -999 -999 -999
2009-01-30 09:01 51°21.706 2°47.649 -999 -999 -999 -999 -999
2009-01-30 09:02 51°21.889 2°47.463 -999 -999 -999 -999 -999
2009-01-30 09:03 51°22.07 2°47.276 -999 -999 -999 -999 -999
2009-01-30 09:04 51°22.25 2°47.096 -999 -999 -999 -999 -999
2009-01-30 09:05 51°22.428 2°46.907 -999 -999 -999 -999 -999
2009-01-30 09:06 51°22.598 2°46.714 -999 -999 -999 -999 -999
2009-01-30 09:07 51°22.765 2°46.507 -999 -999 -999 -999 -999
2009-01-30 09:08 51°22.931 2°46.302 -999 -999 -999 -999 -999
2009-01-30 09:09 51°23.1 2°46.1 -999 -999 -999 -999 -999
2009-01-30 09:10 51°23.271 2°45.905 -999 -999 -999 -999 -999
2009-01-30 09:11 51°23.442 2°45.716 -999 -999 -999 -999 -999
2009-01-30 09:12 51°23.611 2°45.519 -999 -999 -999 -999 -999
2009-01-30 09:13 51°23.781 2°45.327 -999 -999 -999 -999 -999
2009-01-30 09:14 51°23.955 2°45.142 -999 -999 -999 -999 -999
2009-01-30 09:15 51°24.127 2°44.96 -999 -999 -999 -999 -999
2009-01-30 09:16 51°24.3 2°44.785 -999 -999 -999 -999 -999
2009-01-30 09:17 51°24.471 2°44.608 -999 -999 -999 -999 -999
2009-01-30 09:18 51°24.641 2°44.424 -999 -999 -999 -999 -999
2009-01-30 09:19 51°24.816 2°44.253 -999 -999 -999 -999 -999
2009-01-30 09:20 51°24.988 2°44.074 -999 -999 -999 -999 -999
2009-01-30 09:21 51°25.161 2°43.902 -999 -999 -999 -999 -999
2009-01-30 09:22 51°25.329 2°43.717 -999 -999 -999 -999 -999
2009-01-30 09:23 51°25.499 2°43.54 -999 -999 -999 -999 -999
2009-01-30 09:24 51°25.668 2°43.359 -999 -999 -999 -999 -999
2009-01-30 09:25 51°25.84 2°43.186 -999 -999 -999 -999 -999
2009-01-30 09:26 51°26.008 2°43.002 -999 -999 -999 -999 -999
2009-01-30 09:27 51°26.178 2°42.832 -999 -999 -999 -999 -999
2009-01-30 09:28 51°26.35 2°42.661 -999 -999 -999 -999 -999
2009-01-30 09:29 51°26.521 2°42.486 -999 -999 -999 -999 -999
2009-01-30 09:30 51°26.695 2°42.31 -999 -999 -999 -999 -999
2009-01-30 09:31 51°26.866 2°42.146 -999 -999 -999 -999 -999
2009-01-30 09:32 51°27.043 2°41.98 -999 -999 -999 -999 -999
2009-01-30 09:33 51°27.213 2°41.824 -999 -999 -999 -999 -999
2009-01-30 09:34 51°27.392 2°41.665 -999 -999 -999 -999 -999
2009-01-30 09:35 51°27.564 2°41.507 -999 -999 -999 -999 -999
2009-01-30 09:36 51°27.736 2°41.343 -999 -999 -999 -999 -999
2009-01-30 09:37 51°27.908 2°41.173 -999 -999 -999 -999 -999
2009-01-30 09:38 51°28.076 2°41.014 -999 -999 -999 -999 -999
2009-01-30 09:39 51°28.25 2°40.862 -999 -999 -999 -999 -999
2009-01-30 09:40 51°28.428 2°40.733 -999 -999 -999 -999 -999
2009-01-30 09:41 51°28.617 2°40.688 -999 -999 -999 -999 -999
2009-01-30 09:42 51°28.802 2°40.707 -999 -999 -999 -999 -999
2009-01-30 09:43 51°28.991 2°40.738 -999 -999 -999 -999 -999
2009-01-30 09:44 51°29.15 2°40.851 -999 -999 -999 -999 -999
2009-01-30 09:45 51°29.247 2°41.084 -999 -999 -999 -999 -999
2009-01-30 09:46 51°29.331 2°41.343 -999 -999 -999 -999 -999
2009-01-30 09:47 51°29.418 2°41.585 -999 -999 -999 -999 -999
2009-01-30 09:48 51°29.508 2°41.831 -999 -999 -999 -999 -999
2009-01-30 09:49 51°29.592 2°42.083 -999 -999 -999 -999 -999
2009-01-30 09:50 51°29.675 2°42.336 -999 -999 -999 -999 -999
2009-01-30 09:51 51°29.77 2°42.579 -999 -999 -999 -999 -999
2009-01-30 09:52 51°29.863 2°42.822 -999 -999 -999 -999 -999
2009-01-30 09:53 51°29.952 2°43.064 -999 -999 -999 -999 -999
2009-01-30 09:54 51°30.039 2°43.308 -999 -999 -999 -999 -999
2009-01-30 09:55 51°30.129 2°43.549 -999 -999 -999 -999 -999
2009-01-30 09:56 51°30.217 2°43.799 -999 -999 -999 -999 -999
2009-01-30 09:57 51°30.305 2°44.045 -999 -999 -999 -999 -999
2009-01-30 09:58 51°30.394 2°44.289 -999 -999 -999 -999 -999
2009-01-30 09:59 51°30.481 2°44.535 -999 -999 -999 -999 -999
2009-01-30 10:00 51°30.577 2°44.776 -999 -999 -999 -999 -999
2009-01-30 10:01 51°30.665 2°45.013 -999 -999 -999 -999 -999
2009-01-30 10:02 51°30.758 2°45.255 -999 -999 -999 -999 -999
2009-01-30 10:03 51°30.849 2°45.495 -999 -999 -999 -999 -999
2009-01-30 10:04 51°30.939 2°45.735 -999 -999 -999 -999 -999
2009-01-30 10:05 51°31.03 2°45.981 -999 -999 -999 -999 -999
2009-01-30 10:06 51°31.116 2°46.228 -999 -999 -999 -999 -999
2009-01-30 10:07 51°31.206 2°46.468 -999 -999 -999 -999 -999
2009-01-30 10:08 51°31.297 2°46.707 -999 -999 -999 -999 -999
2009-01-30 10:09 51°31.387 2°46.95 -999 -999 -999 -999 -999
2009-01-30 10:10 51°31.469 2°47.193 -999 -999 -999 -999 -999
2009-01-30 10:11 51°31.553 2°47.436 11.6 356 2.6 -999 65
2009-01-30 10:12 51°31.639 2°47.678 12 357 2.4 102010 71
2009-01-30 10:13 51°31.727 2°47.918 10.9 353 2.5 102020 70
2009-01-30 10:14 51°31.82 2°48.157 12.1 354 2.5 102010 71
2009-01-30 10:15 51°31.908 2°48.405 10.8 352 2.4 102020 72
2009-01-30 10:16 51°31.995 2°48.652 11.9 355 2.5 102030 73
2009-01-30 10:17 51°32.086 2°48.892 12.2 354 2.5 102030 73
2009-01-30 10:18 51°32.175 2°49.137 11.5 356 2.5 102030 74
2009-01-30 10:19 51°32.266 2°49.377 11 352 2.5 102030 74
2009-01-30 10:20 51°32.355 2°49.622 11.7 352 2.5 102030 74
2009-01-30 10:21 51°32.445 2°49.865 10.7 353 2.5 102030 73
2009-01-30 10:22 51°32.535 2°50.108 12.6 354 2.5 102020 74
2009-01-30 10:23 51°32.622 2°50.353 10.3 351 2.5 102020 72
2009-01-30 10:24 51°32.702 2°50.602 11.4 278 2.5 102020 73
2009-01-30 10:25 51°32.791 2°50.854 12.8 351 2.6 102030 74
2009-01-30 10:26 51°32.881 2°51.093 13 351 2.5 102020 73
2009-01-30 10:27 51°32.971 2°51.344 10.4 352 2.5 102020 73
2009-01-30 10:28 51°33.059 2°51.59 11.6 351 2.6 102030 75
2009-01-30 10:29 51°33.148 2°51.838 13.1 353 2.6 102030 74
2009-01-30 10:30 51°33.236 2°52.088 11.1 352 2.6 102030 75
2009-01-30 10:31 51°33.322 2°52.337 11.6 351 2.6 102030 75
2009-01-30 10:32 51°33.411 2°52.579 11.7 279 2.6 102020 75
2009-01-30 10:33 51°33.5 2°52.823 10.9 282 2.5 102030 74
2009-01-30 10:34 51°33.593 2°53.064 11 352 2.6 102020 76
2009-01-30 10:35 51°33.68 2°53.312 12.5 349 2.6 102030 76
2009-01-30 10:36 51°33.768 2°53.557 12.8 349 2.6 102040 77
2009-01-30 10:37 51°33.857 2°53.803 13.4 352 2.6 102030 76
2009-01-30 10:38 51°33.943 2°54.051 11.6 351 2.6 102030 77
2009-01-30 10:39 51°34.032 2°54.294 13.7 352 2.6 102020 77
2009-01-30 10:40 51°34.119 2°54.538 11.4 351 2.5 102030 76
2009-01-30 10:41 51°34.207 2°54.777 11 352 2.5 102030 76
2009-01-30 10:42 51°34.296 2°55.025 12.2 352 2.5 102030 78
2009-01-30 10:43 51°34.38 2°55.274 12.2 350 2.4 102030 76
2009-01-30 10:44 51°34.463 2°55.521 13.4 278 2.5 102030 78
2009-01-30 10:45 51°34.547 2°55.768 13.1 351 2.4 102030 77
2009-01-30 10:46 51°34.631 2°56.015 10.4 353 2.4 102030 77
2009-01-30 10:47 51°34.717 2°56.259 12.4 351 2.5 102030 78
2009-01-30 10:48 51°34.808 2°56.497 11.7 353 2.4 102030 77
2009-01-30 10:49 51°34.898 2°56.738 11.2 351 2.5 102030 78
2009-01-30 10:50 51°34.984 2°56.983 11.9 351 2.5 102030 79
2009-01-30 10:51 51°35.069 2°57.228 12.8 349 2.4 102030 77
2009-01-30 10:52 51°35.112 2°57.502 14.7 341 2.4 102030 78
2009-01-30 10:53 51°35.081 2°57.789 13.4 281 2.4 102030 79
2009-01-30 10:54 51°35.007 2°58.067 15.7 334 2.5 102040 78
2009-01-30 10:55 51°34.931 2°58.344 15.1 284 2.5 102040 76
2009-01-30 10:56 51°34.855 2°58.623 13.6 335 2.5 102040 77
2009-01-30 10:57 51°34.751 2°58.892 12.2 334 2.5 102050 77
2009-01-30 10:58 51°34.64 2°59.143 14.3 329 2.6 102040 78
2009-01-30 10:59 51°34.503 2°59.378 12.8 331 2.6 102050 77
2009-01-30 11:00 51°34.357 2°59.597 15.2 329 2.6 102050 77
2009-01-30 11:01 51°34.2 2°59.82 15.2 327 2.6 102040 77
2009-01-30 11:02 51°34.047 3°0.037 11.9 329 2.6 102040 77
2009-01-30 11:03 51°33.894 3°0.273 14.5 327 2.7 102040 77
2009-01-30 11:04 51°33.742 3°0.501 15.1 280 2.7 102040 78
2009-01-30 11:05 51°33.569 3°0.707 14.5 305 2.7 102040 78
2009-01-30 11:06 51°33.355 3°0.806 13.6 310 2.7 102020 77
2009-01-30 11:07 51°33.141 3°0.746 12 308 2.7 102020 77
2009-01-30 11:08 51°32.938 3°0.587 10.7 305 2.7 102030 77
2009-01-30 11:09 51°32.745 3°0.364 10.5 305 2.7 102030 78
2009-01-30 11:10 51°32.566 3°0.121 7.7 302 2.7 102030 77
2009-01-30 11:11 51°32.389 2°59.87 9.3 307 2.7 102040 78
2009-01-30 11:12 51°32.228 2°59.595 9.6 304 2.8 102040 78
2009-01-30 11:13 51°32.085 2°59.289 8.1 303 2.8 102030 77
2009-01-30 11:14 51°31.954 2°58.993 7.2 308 2.8 102030 77
2009-01-30 11:15 51°31.815 2°58.677 7.3 309 2.9 102030 78
2009-01-30 11:16 51°31.704 2°58.357 5.3 308 3 102030 78
2009-01-30 11:17 51°31.583 2°58.034 5.1 306 3 102020 78
2009-01-30 11:18 51°31.466 2°57.719 5.4 306 3.1 102020 78
2009-01-30 11:19 51°31.35 2°57.398 5.8 310 3.1 102020 78
2009-01-30 11:20 51°31.231 2°57.077 6.4 285 3.1 102010 78
2009-01-30 11:21 51°31.114 2°56.752 6 305 3.1 102010 78
2009-01-30 11:22 51°30.99 2°56.426 7.5 304 3.1 102020 77
2009-01-30 11:23 51°30.871 2°56.111 7.2 308 3.2 102010 78
2009-01-30 11:24 51°30.756 2°55.778 5.2 304 3.2 102010 78
2009-01-30 11:25 51°30.649 2°55.452 7.1 303 3.2 102000 78
2009-01-30 11:26 51°30.537 2°55.128 6.5 304 3.2 102000 78
2009-01-30 11:27 51°30.425 2°54.803 5.8 309 3.2 102000 77
2009-01-30 11:28 51°30.313 2°54.476 5.8 302 3.2 102000 76
2009-01-30 11:29 51°30.195 2°54.151 6.2 304 3.2 102000 77
2009-01-30 11:30 51°30.075 2°53.841 6.2 307 3.2 101990 76
2009-01-30 11:31 51°29.954 2°53.52 7.8 307 3.3 101990 77
2009-01-30 11:32 51°29.841 2°53.196 8.1 282 3.2 101990 76
2009-01-30 11:33 51°29.729 2°52.878 6.7 304 3.3 101990 77
2009-01-30 11:34 51°29.612 2°52.557 6.8 281 3.3 101980 76
2009-01-30 11:35 51°29.499 2°52.233 6.3 309 3.3 101980 76
2009-01-30 11:36 51°29.43 2°51.886 2.8 281 3.3 101980 76
2009-01-30 11:37 51°29.466 2°51.538 1.8 34 3.3 101980 76
2009-01-30 11:38 51°29.559 2°51.228 3.7 22 3.3 101980 76
2009-01-30 11:39 51°29.69 2°50.973 3.5 24 3.1 101980 76
2009-01-30 11:40 51°29.848 2°50.86 12.1 356 3 101970 77
2009-01-30 11:41 51°29.952 2°51.062 11.9 341 2.9 101950 78
2009-01-30 11:42 51°29.979 2°51.348 15.5 338 2.9 101950 78
2009-01-30 11:43 51°29.95 2°51.647 12.9 336 3 101960 76
2009-01-30 11:44 51°29.901 2°51.935 15.5 335 3.1 101960 77
2009-01-30 11:45 51°29.848 2°52.233 13 333 3.1 101960 77
2009-01-30 11:46 51°29.817 2°52.523 15.1 340 3.1 101950 77
2009-01-30 11:47 51°29.866 2°52.801 14.1 344 3 101940 77
2009-01-30 11:48 51°29.948 2°53.062 14.6 343 2.9 101940 78
2009-01-30 11:49 51°30.017 2°53.34 13.9 343 2.9 101940 79
2009-01-30 11:50 51°30.084 2°53.607 15.2 341 2.8 101940 78
2009-01-30 11:51 51°30.148 2°53.888 13 342 2.8 101940 79
2009-01-30 11:52 51°30.214 2°54.157 11.7 278 2.8 101930 79
2009-01-30 11:53 51°30.285 2°54.424 13.9 282 2.8 101930 79
2009-01-30 11:54 51°30.369 2°54.698 15.2 282 2.8 101940 79
2009-01-30 11:55 51°30.449 2°54.96 14.6 280 2.8 101930 79
2009-01-30 11:56 51°30.533 2°55.231 14.9 282 2.8 101930 80
2009-01-30 11:57 51°30.616 2°55.491 12.5 280 2.8 101930 80
2009-01-30 11:58 51°30.693 2°55.763 13.4 282 2.8 101920 79
2009-01-30 11:59 51°30.784 2°56.002 14.2 278 2.8 101930 80
2009-01-30 12:00 51°30.876 2°56.259 13.4 282 2.8 101930 80
2009-01-30 12:01 51°30.956 2°56.512 12.1 284 2.8 101920 81
2009-01-30 12:02 51°31.038 2°56.758 11.4 283 2.8 101920 79
2009-01-30 12:03 51°31.124 2°57.01 14.3 285 2.8 101920 81
2009-01-30 12:04 51°31.21 2°57.251 12.4 345 2.8 101920 80
2009-01-30 12:05 51°31.292 2°57.508 13.9 282 2.8 101920 81
2009-01-30 12:06 51°31.375 2°57.754 15 281 2.8 101920 81
2009-01-30 12:07 51°31.461 2°58.01 15.3 283 2.8 101920 81
2009-01-30 12:08 51°31.548 2°58.256 13.9 281 2.8 101910 80
2009-01-30 12:09 51°31.638 2°58.516 12.3 344 2.8 101910 82
2009-01-30 12:10 51°31.721 2°58.772 14.4 285 2.8 101920 81
2009-01-30 12:11 51°31.801 2°59.032 13.2 281 2.8 101920 83
2009-01-30 12:12 51°31.886 2°59.297 14.3 278 2.7 101910 82
2009-01-30 12:13 51°31.971 2°59.552 13.3 278 2.7 101910 83
2009-01-30 12:14 51°32.055 2°59.818 14.2 280 2.8 101920 82
2009-01-30 12:15 51°32.141 3°0.073 12.5 282 2.8 101910 81
2009-01-30 12:16 51°32.23 3°0.339 15.1 282 2.9 101920 82
2009-01-30 12:17 51°32.313 3°0.61 11.7 281 2.9 101910 81
2009-01-30 12:18 51°32.397 3°0.88 13.1 282 3 101910 81
2009-01-30 12:19 51°32.49 3°1.144 13.3 278 3 101910 80
2009-01-30 12:20 51°32.58 3°1.404 14.6 280 3.1 101900 78
2009-01-30 12:21 51°32.671 3°1.679 13.9 346 3.1 101900 77
2009-01-30 12:22 51°32.76 3°1.943 12.5 278 3.1 101900 78
2009-01-30 12:23 51°32.852 3°2.217 13.9 282 3.2 101910 77
2009-01-30 12:24 51°32.853 3°2.512 13.7 283 3.3 101920 77
2009-01-30 12:25 51°32.698 3°2.737 12.1 281 3.4 101910 79
2009-01-30 12:26 51°32.481 3°2.758 14.7 306 3.5 101900 79
2009-01-30 12:27 51°32.262 3°2.748 10 283 3.5 101900 77
2009-01-30 12:28 51°32.048 3°2.725 10.6 305 3.5 101910 77
2009-01-30 12:29 51°31.836 3°2.699 10.4 282 3.5 101910 77
2009-01-30 12:30 51°31.617 3°2.674 12.7 284 3.5 101900 77
2009-01-30 12:31 51°31.401 3°2.652 13.1 283 3.4 101900 77
2009-01-30 12:32 51°31.184 3°2.622 11.3 285 3.4 101910 79
2009-01-30 12:33 51°30.978 3°2.505 8.1 308 3.3 101910 79
2009-01-30 12:34 51°30.801 3°2.29 9.2 284 3.3 101920 79
2009-01-30 12:35 51°30.653 3°2.023 5 280 3.3 101920 80
2009-01-30 12:36 51°30.536 3°1.732 5.2 285 3.4 101920 80
2009-01-30 12:37 51°30.426 3°1.411 4.9 305 3.5 101920 80
2009-01-30 12:38 51°30.317 3°1.097 7.5 281 3.5 101910 80
2009-01-30 12:39 51°30.198 3°0.785 8.1 283 3.6 101910 80
2009-01-30 12:40 51°30.081 3°0.483 5.5 310 3.5 101910 80
2009-01-30 12:41 51°29.97 3°0.172 6.9 286 3.6 101900 80
2009-01-30 12:42 51°29.858 2°59.863 5.9 283 3.6 101900 80
2009-01-30 12:43 51°29.748 2°59.553 4.9 279 3.6 101900 80
2009-01-30 12:44 51°29.633 2°59.247 5.7 282 3.6 101900 80
2009-01-30 12:45 51°29.526 2°58.94 6.8 282 3.6 101900 80
2009-01-30 12:46 51°29.415 2°58.624 5.2 286 3.6 101900 80
2009-01-30 12:47 51°29.299 2°58.322 6.7 309 3.6 101890 80
2009-01-30 12:48 51°29.192 2°58.011 3.3 281 3.5 101890 80
2009-01-30 12:49 51°29.081 2°57.706 4.1 305 3.5 101890 80
2009-01-30 12:50 51°28.968 2°57.403 5.7 280 3.4 101890 81
2009-01-30 12:51 51°28.863 2°57.094 3.8 284 3.4 101880 81
2009-01-30 12:52 51°28.757 2°56.791 6.8 286 3.4 101880 82
2009-01-30 12:53 51°28.648 2°56.479 4 285 3.5 101870 82
2009-01-30 12:54 51°28.539 2°56.182 5.9 282 3.4 101870 82
2009-01-30 12:55 51°28.424 2°55.878 6 278 3.4 101870 81
2009-01-30 12:56 51°28.312 2°55.591 8.5 284 3.4 101860 82
2009-01-30 12:57 51°28.201 2°55.298 5.7 285 3.4 101860 82
2009-01-30 12:58 51°28.09 2°54.997 5.4 284 3.4 101860 82
2009-01-30 12:59 51°27.981 2°54.702 4.1 282 3.4 101850 83
2009-01-30 13:00 51°27.869 2°54.41 5.4 282 3.4 101850 83
2009-01-30 13:01 51°27.76 2°54.124 3.4 280 3.5 101840 83
2009-01-30 13:02 51°27.648 2°53.829 5.6 281 3.5 101840 83
2009-01-30 13:03 51°27.538 2°53.537 3.8 281 3.5 101840 82
2009-01-30 13:04 51°27.426 2°53.247 5.9 282 3.5 101830 82
2009-01-30 13:05 51°27.315 2°52.96 5.9 280 3.5 101840 83
2009-01-30 13:06 51°27.204 2°52.674 4.6 279 3.5 101830 83
2009-01-30 13:07 51°27.095 2°52.385 3.4 281 3.6 101830 84
2009-01-30 13:08 51°26.986 2°52.096 5.4 286 3.6 101830 84
2009-01-30 13:09 51°26.877 2°51.807 7.1 281 3.6 101830 84
2009-01-30 13:10 51°26.771 2°51.526 6.7 284 3.7 101820 84
2009-01-30 13:11 51°26.659 2°51.244 7.1 283 3.7 101820 83
2009-01-30 13:12 51°26.55 2°50.96 4.9 281 3.8 101810 81
2009-01-30 13:13 51°26.448 2°50.691 5.4 284 3.8 101810 81
2009-01-30 13:14 51°26.343 2°50.415 3.9 280 3.9 101810 79
2009-01-30 13:15 51°26.247 2°50.148 4 279 3.9 101810 79
2009-01-30 13:16 51°26.147 2°49.875 5.6 281 3.9 101810 79
2009-01-30 13:17 51°26.044 2°49.612 4.1 281 4 101810 80
2009-01-30 13:18 51°25.944 2°49.346 3.9 286 4 101810 79
2009-01-30 13:19 51°25.848 2°49.084 5.1 281 4 101810 78
2009-01-30 13:20 51°25.743 2°48.826 6.3 281 4 101800 78
2009-01-30 13:21 51°25.643 2°48.556 3.4 285 4.1 101800 78
2009-01-30 13:22 51°25.546 2°48.295 3.9 287 4.1 101800 79
2009-01-30 13:23 51°25.449 2°48.021 4.5 280 4.1 101790 79
2009-01-30 13:24 51°25.351 2°47.76 5.1 283 4.1 101790 79
2009-01-30 13:25 51°25.251 2°47.491 3.5 286 4.1 101780 79
2009-01-30 13:26 51°25.154 2°47.234 3.3 279 4.2 101780 79
2009-01-30 13:27 51°25.052 2°46.977 3.9 282 4.2 101780 78
2009-01-30 13:28 51°24.955 2°46.713 3.1 280 4.2 101780 79
2009-01-30 13:29 51°24.862 2°46.455 4.7 283 4.3 101780 79
2009-01-30 13:30 51°24.767 2°46.191 2.6 310 4.3 101780 79
2009-01-30 13:31 51°24.674 2°45.936 6.3 280 4.4 101770 79
2009-01-30 13:32 51°24.577 2°45.675 7 279 4.3 101770 76
2009-01-30 13:33 51°24.473 2°45.435 8.5 282 4.4 101770 75
2009-01-30 13:34 51°24.309 2°45.285 8.9 280 4.4 101760 75
2009-01-30 13:35 51°24.119 2°45.233 12.3 284 4.4 101740 75
2009-01-30 13:36 51°23.931 2°45.3 12.2 278 4.4 101740 75
2009-01-30 13:37 51°23.761 2°45.478 12.9 307 4.4 101730 75
2009-01-30 13:38 51°23.587 2°45.647 13.5 278 4.4 101720 75
2009-01-30 13:39 51°23.416 2°45.818 12.7 282 4.4 101720 75
2009-01-30 13:40 51°23.245 2°45.99 12.1 278 4.4 101720 75
2009-01-30 13:41 51°23.076 2°46.172 15.8 282 4.4 101720 74
2009-01-30 13:42 51°22.915 2°46.368 14.4 283 4.4 101710 73
2009-01-30 13:43 51°22.747 2°46.569 14.4 283 4.4 101710 74
2009-01-30 13:44 51°22.584 2°46.763 14.7 279 4.4 101710 74
2009-01-30 13:45 51°22.413 2°46.956 15.3 282 4.4 101720 75
2009-01-30 13:46 51°22.243 2°47.141 13.9 305 4.3 101710 74
2009-01-30 13:47 51°22.076 2°47.323 15.2 280 4.3 101710 74
2009-01-30 13:48 51°21.903 2°47.512 14.6 285 4.3 101710 76
2009-01-30 13:49 51°21.742 2°47.691 12.4 286 4.3 101710 75
2009-01-30 13:50 51°21.574 2°47.873 15.9 280 4.2 101710 75
2009-01-30 13:51 51°21.408 2°48.045 12.4 280 4.2 101700 76
2009-01-30 13:52 51°21.237 2°48.228 12.7 278 4.2 101690 76
2009-01-30 13:53 51°21.068 2°48.404 12.5 277 4.2 101690 77
2009-01-30 13:54 51°20.901 2°48.577 14 286 4.2 101700 76
2009-01-30 13:55 51°20.739 2°48.758 11.6 286 4.2 101700 77
2009-01-30 13:56 51°20.578 2°48.944 11.4 284 4.2 101700 78
2009-01-30 13:57 51°20.415 2°49.128 13 285 4.2 101700 77
2009-01-30 13:58 51°20.252 2°49.301 12.1 287 4.2 101700 77
2009-01-30 13:59 51°20.082 2°49.479 11.4 279 4.2 101700 78
2009-01-30 14:00 51°19.912 2°49.649 11 284 4.2 101690 77
2009-01-30 14:01 51°19.744 2°49.822 10.9 279 4.2 101690 79
2009-01-30 14:02 51°19.572 2°49.984 12.9 287 4.3 101700 78
2009-01-30 14:03 51°19.401 2°50.154 12.7 281 4.3 101690 78
2009-01-30 14:04 51°19.224 2°50.313 11.7 286 4.3 101690 77
2009-01-30 14:05 51°19.05 2°50.476 11.1 279 4.3 101690 78
2009-01-30 14:06 51°18.877 2°50.637 11.9 283 4.3 101690 78
2009-01-30 14:07 51°18.711 2°50.804 10.9 279 4.3 101700 78
2009-01-30 14:08 51°18.548 2°50.981 11.4 286 4.4 101700 78
2009-01-30 14:09 51°18.384 2°51.159 11.2 279 4.4 101690 77
2009-01-30 14:10 51°18.219 2°51.34 11.8 282 4.4 101690 77
2009-01-30 14:11 51°18.051 2°51.516 11.9 281 4.4 101690 77
2009-01-30 14:12 51°17.887 2°51.69 9.9 282 4.5 101690 78
2009-01-30 14:13 51°17.715 2°51.867 10.9 283 4.5 101700 78
2009-01-30 14:14 51°17.552 2°52.042 9.8 281 4.6 101690 77
2009-01-30 14:15 51°17.372 2°52.175 10.6 279 4.7 101690 76
2009-01-30 14:16 51°17.191 2°52.289 10.1 280 4.8 101690 75
2009-01-30 14:17 51°17.009 2°52.399 13.4 285 4.9 101680 72
2009-01-30 14:18 51°16.83 2°52.519 13.2 281 5 101670 71
2009-01-30 14:19 51°16.652 2°52.645 11.6 278 5.2 101670 69
2009-01-30 14:20 51°16.471 2°52.764 12.9 282 5.3 101670 68
2009-01-30 14:21 51°16.293 2°52.888 12.8 286 5.3 101670 69
2009-01-30 14:22 51°16.116 2°53.022 11.4 281 5.3 101670 69
2009-01-30 14:23 51°15.941 2°53.147 13.4 281 5.4 101670 69
2009-01-30 14:24 51°15.764 2°53.276 11.5 282 5.4 101660 68
2009-01-30 14:25 51°15.585 2°53.399 10.3 284 5.4 101660 68
2009-01-30 14:26 51°15.405 2°53.52 11.6 277 5.4 101660 69
2009-01-30 14:27 51°15.235 2°53.676 14.5 281 5.4 101660 68
2009-01-30 14:28 51°15.068 2°53.841 13.7 281 5.4 101660 68
2009-01-30 14:29 51°14.908 2°54.025 13.5 281 5.4 101660 67
2009-01-30 14:30 51°14.763 2°54.246 12.2 282 5.4 101660 66
2009-01-30 14:31 51°14.624 2°54.483 12.6 283 5.4 101660 67
2009-01-30 14:32 51°14.503 2°54.751 13.7 285 5.4 101670 67
2009-01-30 14:33 51°14.387 2°55.026 12.1 282 5.5 101670 67
2009-01-30 14:34 51°14.265 2°55.239 9.3 281 5.5 101690 66
2009-01-30 14:35 51°14.175 2°55.369 5.5 282 5.5 101690 66
2009-01-30 14:36 51°14.082 2°55.443 7.6 279 5.5 101690 65
2009-01-30 14:37 51°13.976 2°55.519 7.2 282 5.5 101690 65
2009-01-30 14:38 51°13.865 2°55.603 6.5 280 5.5 101690 66
2009-01-30 14:39 51°13.772 2°55.682 7.5 285 5.6 101700 66